Time;durP1;ratioP1;P1;durP2;ratioP2;P2;SDS_P1;SDS_P2;PMS_P1;PMS_P2;Temp;Humidity;BMP_temperature;BMP_pressure;BME280_temperature;BME280_humidity;BME280_pressure;Samples;Min_cycle;Max_cycle;Signal;HPM_P1;HPM_P2
2023/08/02 04:06:37;;;;;;;;;25.00;22.67;;;;;;;;6201481;39;9999989;-56
2023/08/02 04:12:39;;;;;;;;;21.33;21.33;;;;;;;;6491658;39;8988;-53
2023/08/02 09:58:20;;;;;;;;;21.50;21.50;;;;;;;;6131301;31;10000664;-57
2023/08/02 10:04:25;;;;;;;;;20.00;18.50;;;;;;;;6489761;39;9727;-56
2023/08/02 10:10:37;;;;;;;;;36.00;32.50;;;;;;;;6491571;31;8980;-56
2023/08/02 10:16:41;;;;;;;;;16.75;16.75;;;;;;;;6490085;39;8945;-58
2023/08/02 10:22:44;;;;;;;;;20.00;20.00;;;;;;;;6489062;46;8960;-58
2023/08/02 10:28:48;;;;;;;;;16.50;16.50;;;;;;;;6490015;46;9153;-58
2023/08/02 10:34:52;;;;;;;;;16.25;16.25;;;;;;;;6489232;39;8936;-57
2023/08/02 10:41:06;;;;;;;;;19.75;17.75;;;;;;;;6488519;39;8906;-57
2023/08/02 10:47:27;;;;;;;;;22.00;20.00;;;;;;;;6488268;39;9113;-57
2023/08/02 10:53:29;;;;;;;;;17.25;16.50;;;;;;;;6507874;36;8898;-57
2023/08/02 10:59:31;;;;;;;;;41.00;36.25;;;;;;;;6488877;47;8962;-56
2023/08/02 11:05:46;;;;;;;;;17.25;17.25;;;;;;;;6487619;39;9068;-58
2023/08/02 11:11:49;;;;;;;;;26.25;25.75;;;;;;;;6488897;39;9402;-57
2023/08/02 11:17:56;;;;;;;;;21.25;19.00;;;;;;;;6486495;31;9025;-56
2023/08/02 11:24:00;;;;;;;;;16.50;15.25;;;;;;;;6487653;47;8887;-59
2023/08/02 11:30:06;;;;;;;;;20.75;19.50;;;;;;;;6488530;39;8911;-57
2023/08/02 11:36:10;;;;;;;;;15.50;15.50;;;;;;;;6488760;39;8941;-57
2023/08/02 11:42:12;;;;;;;;;13.50;13.50;;;;;;;;6490884;39;8993;-57
2023/08/02 11:48:26;;;;;;;;;11.75;11.50;;;;;;;;6489530;46;8911;-57
2023/08/02 11:54:29;;;;;;;;;19.50;16.75;;;;;;;;6489707;31;9780;-57
2023/08/02 12:00:36;;;;;;;;;16.50;16.50;;;;;;;;6489500;39;8991;-58
2023/08/02 12:06:52;;;;;;;;;16.75;16.75;;;;;;;;6486354;39;8952;-56
2023/08/02 12:12:55;;;;;;;;;17.50;15.75;;;;;;;;6488337;39;9613;-55
2023/08/02 12:18:59;;;;;;;;;16.75;14.75;;;;;;;;6488526;31;8974;-56
2023/08/02 12:25:05;;;;;;;;;14.75;14.75;;;;;;;;6487830;39;8952;-56
2023/08/02 12:31:10;;;;;;;;;15.25;14.00;;;;;;;;6488574;39;9048;-57
2023/08/02 12:37:12;;;;;;;;;14.00;14.00;;;;;;;;6487825;39;8985;-56
2023/08/02 12:43:15;;;;;;;;;12.00;12.00;;;;;;;;6488688;39;9765;-56
2023/08/02 12:49:17;;;;;;;;;13.00;12.50;;;;;;;;6488127;46;8905;-57
2023/08/02 12:55:19;;;;;;;;;16.50;15.50;;;;;;;;6488858;39;8934;-56
2023/08/02 13:01:23;;;;;;;;;15.75;14.75;;;;;;;;6488634;31;8947;-56
2023/08/02 13:07:25;;;;;;;;;19.00;19.00;;;;;;;;6489118;31;8911;-57
2023/08/02 13:13:44;;;;;;;;;12.50;12.50;;;;;;;;6488531;39;9003;-56
2023/08/02 13:19:46;;;;;;;;;15.50;12.75;;;;;;;;6488871;31;8900;-58
2023/08/02 13:25:51;;;;;;;;;12.25;12.25;;;;;;;;6490599;39;9694;-60
2023/08/02 13:31:54;;;;;;;;;17.50;15.25;;;;;;;;6487880;31;8925;-61
2023/08/02 13:37:57;;;;;;;;;15.00;14.50;;;;;;;;6489375;46;8904;-60
2023/08/02 13:44:00;;;;;;;;;14.50;14.50;;;;;;;;6489019;46;9049;-59
2023/08/02 13:50:03;;;;;;;;;12.50;11.75;;;;;;;;6488652;46;9090;-58
2023/08/02 13:56:06;;;;;;;;;11.50;11.50;;;;;;;;6491253;39;8987;-59
2023/08/02 14:02:11;;;;;;;;;12.75;12.75;;;;;;;;6485929;46;8977;-60
2023/08/02 14:08:15;;;;;;;;;13.75;13.75;;;;;;;;6489309;39;8907;-59
2023/08/02 14:14:20;;;;;;;;;13.50;13.50;;;;;;;;6489928;39;8907;-59
2023/08/02 14:20:23;;;;;;;;;10.75;10.50;;;;;;;;6489289;39;8904;-59
2023/08/02 14:26:25;;;;;;;;;13.50;12.00;;;;;;;;6490545;39;9004;-57
2023/08/02 14:32:27;;;;;;;;;15.00;14.50;;;;;;;;6490382;39;8926;-63
2023/08/02 14:38:33;;;;;;;;;13.50;11.50;;;;;;;;6489931;39;9017;-58
2023/08/02 14:44:36;;;;;;;;;14.00;14.00;;;;;;;;6490703;39;9668;-58
2023/08/02 14:50:39;;;;;;;;;11.50;11.00;;;;;;;;6487636;39;8973;-59
2023/08/02 14:56:41;;;;;;;;;11.75;11.75;;;;;;;;6489389;39;9010;-59
2023/08/02 15:02:44;;;;;;;;;12.75;12.75;;;;;;;;6486889;47;8978;-59
2023/08/02 15:08:47;;;;;;;;;12.75;12.75;;;;;;;;6487386;46;8942;-59
2023/08/02 15:14:49;;;;;;;;;10.50;10.50;;;;;;;;6490341;31;8914;-60
2023/08/02 15:20:52;;;;;;;;;16.00;14.75;;;;;;;;6490176;39;8929;-59
2023/08/02 15:27:04;;;;;;;;;16.25;14.75;;;;;;;;6491278;31;9020;-62
2023/08/02 15:33:06;;;;;;;;;16.50;16.50;;;;;;;;6490832;39;9568;-59
2023/08/02 15:39:09;;;;;;;;;16.75;15.25;;;;;;;;6490868;31;9541;-59
2023/08/02 15:45:13;;;;;;;;;17.50;13.75;;;;;;;;6490316;31;8966;-60
2023/08/02 15:51:15;;;;;;;;;19.00;18.00;;;;;;;;6489911;31;8933;-60
2023/08/02 15:57:17;;;;;;;;;19.25;19.25;;;;;;;;6490415;39;8923;-60
2023/08/02 16:03:20;;;;;;;;;20.25;20.25;;;;;;;;6490418;39;8935;-59
2023/08/02 16:09:22;;;;;;;;;10.00;10.00;;;;;;;;6489638;39;8856;-58
2023/08/02 16:15:25;;;;;;;;;20.75;19.75;;;;;;;;6490106;46;8891;-60
2023/08/02 16:21:28;;;;;;;;;13.50;13.25;;;;;;;;6489220;39;9945;-59
2023/08/02 16:27:33;;;;;;;;;14.75;14.50;;;;;;;;6490497;39;9496;-59
2023/08/02 16:33:36;;;;;;;;;15.50;15.50;;;;;;;;6489807;39;8868;-59
2023/08/02 16:39:38;;;;;;;;;16.25;16.00;;;;;;;;6489413;39;8982;-60
2023/08/02 16:45:40;;;;;;;;;12.25;12.25;;;;;;;;6488142;46;9109;-59
2023/08/02 16:51:43;;;;;;;;;15.25;14.00;;;;;;;;6489474;39;8912;-55
2023/08/02 16:57:46;;;;;;;;;13.25;13.25;;;;;;;;6489939;46;8983;-56
2023/08/02 17:03:51;;;;;;;;;18.25;17.25;;;;;;;;6489660;31;8888;-55
2023/08/02 17:09:54;;;;;;;;;11.50;11.50;;;;;;;;6488553;31;8896;-56
2023/08/02 17:15:59;;;;;;;;;16.00;16.00;;;;;;;;6488833;46;8875;-54
2023/08/02 17:22:01;;;;;;;;;18.00;16.00;;;;;;;;6489694;39;8923;-54
2023/08/02 17:28:04;;;;;;;;;16.25;15.25;;;;;;;;6488697;46;8891;-56
2023/08/02 17:34:07;;;;;;;;;15.00;15.00;;;;;;;;6308704;39;10000983;-56
2023/08/02 17:40:09;;;;;;;;;17.25;17.00;;;;;;;;6488743;39;8887;-55
2023/08/02 17:46:12;;;;;;;;;21.50;19.50;;;;;;;;6489009;39;8860;-56
2023/08/02 17:52:14;;;;;;;;;18.75;18.25;;;;;;;;6488217;46;8877;-57
2023/08/02 17:58:16;;;;;;;;;19.33;17.67;;;;;;;;6490113;39;8936;-54
2023/08/02 18:04:22;;;;;;;;;15.50;15.50;;;;;;;;6489111;39;8950;-55
2023/08/02 18:10:27;;;;;;;;;16.00;16.00;;;;;;;;6489349;39;8948;-57
2023/08/02 18:16:30;;;;;;;;;18.50;17.50;;;;;;;;6489534;39;8922;-55
2023/08/02 18:22:32;;;;;;;;;22.25;21.25;;;;;;;;6488668;39;9598;-54
2023/08/02 18:28:35;;;;;;;;;14.75;14.25;;;;;;;;6488912;31;8856;-57
2023/08/02 18:34:38;;;;;;;;;20.75;20.75;;;;;;;;6488727;31;8864;-54
2023/08/02 18:40:43;;;;;;;;;21.00;21.00;;;;;;;;6489357;39;8886;-54
2023/08/02 18:46:45;;;;;;;;;19.25;18.25;;;;;;;;6488447;39;8903;-53
2023/08/02 18:52:50;;;;;;;;;16.75;16.00;;;;;;;;6488473;39;8923;-56
2023/08/02 18:58:54;;;;;;;;;16.75;15.00;;;;;;;;6488504;39;9125;-55
2023/08/02 19:04:56;;;;;;;;;13.00;13.00;;;;;;;;6489795;31;9097;-55
2023/08/02 19:11:05;;;;;;;;;15.75;15.75;;;;;;;;6487016;39;8993;-56
2023/08/02 19:17:09;;;;;;;;;19.00;18.50;;;;;;;;6487745;47;8953;-57
2023/08/02 19:23:18;;;;;;;;;15.50;13.50;;;;;;;;6487423;39;9065;-54
2023/08/02 19:29:21;;;;;;;;;20.00;18.00;;;;;;;;6488465;39;9065;-56
2023/08/02 19:35:29;;;;;;;;;19.50;18.25;;;;;;;;6488476;39;8908;-55
2023/08/02 19:41:31;;;;;;;;;17.00;17.00;;;;;;;;6487519;39;8886;-55
2023/08/02 19:47:34;;;;;;;;;16.50;16.50;;;;;;;;6488490;39;8999;-54
2023/08/02 19:53:36;;;;;;;;;17.50;17.00;;;;;;;;6488020;47;8929;-55
2023/08/02 19:59:39;;;;;;;;;18.75;17.50;;;;;;;;6489071;46;8910;-56
2023/08/02 20:05:58;;;;;;;;;16.00;16.00;;;;;;;;6489631;39;8941;-52
2023/08/02 20:12:02;;;;;;;;;16.00;15.50;;;;;;;;6488469;46;8941;-54
2023/08/02 20:18:08;;;;;;;;;18.75;18.75;;;;;;;;6489882;39;8996;-55
2023/08/02 20:24:15;;;;;;;;;19.00;16.75;;;;;;;;6490094;39;9625;-51
2023/08/02 20:30:18;;;;;;;;;18.25;16.00;;;;;;;;6489607;39;10040;-55
2023/08/02 20:36:22;;;;;;;;;19.00;18.25;;;;;;;;6489944;39;8874;-56
2023/08/02 20:42:24;;;;;;;;;17.00;16.75;;;;;;;;6489738;46;8944;-52
2023/08/02 20:48:27;;;;;;;;;17.25;17.00;;;;;;;;6490112;31;8914;-52
2023/08/02 20:54:29;;;;;;;;;16.50;16.50;;;;;;;;6535293;36;8960;-52
2023/08/02 21:00:32;;;;;;;;;18.75;16.75;;;;;;;;6489673;46;9001;-56
2023/08/02 21:06:53;;;;;;;;;17.25;17.25;;;;;;;;6489462;39;8996;-54
2023/08/02 21:13:13;;;;;;;;;19.00;19.00;;;;;;;;6489625;39;8894;-55
2023/08/02 21:19:16;;;;;;;;;17.50;15.50;;;;;;;;6488292;39;8898;-53
2023/08/02 21:25:19;;;;;;;;;17.50;17.50;;;;;;;;6489172;39;8910;-53
2023/08/02 21:31:21;;;;;;;;;17.25;16.50;;;;;;;;6488375;39;9312;-55
2023/08/02 21:37:24;;;;;;;;;20.75;19.00;;;;;;;;6488261;39;8905;-54
2023/08/02 21:43:29;;;;;;;;;19.00;18.00;;;;;;;;6487964;31;8909;-52
2023/08/02 21:49:32;;;;;;;;;19.75;17.25;;;;;;;;6488644;31;9590;-54
2023/08/02 21:55:38;;;;;;;;;18.50;17.50;;;;;;;;6489788;39;8941;-52
2023/08/02 22:01:42;;;;;;;;;14.00;14.00;;;;;;;;6488039;39;8826;-54
2023/08/02 22:07:46;;;;;;;;;18.75;18.25;;;;;;;;6488024;39;8890;-53
2023/08/02 22:13:50;;;;;;;;;18.00;18.00;;;;;;;;6489521;39;8870;-54
2023/08/02 22:19:53;;;;;;;;;19.25;17.75;;;;;;;;6489063;39;9565;-55
2023/08/02 22:25:56;;;;;;;;;17.75;17.75;;;;;;;;6488412;46;8890;-54
2023/08/02 22:31:58;;;;;;;;;14.25;11.00;;;;;;;;6487928;39;9513;-53
2023/08/02 22:38:01;;;;;;;;;17.75;16.25;;;;;;;;6487452;39;8997;-54
2023/08/02 22:44:04;;;;;;;;;21.50;20.50;;;;;;;;6488928;39;8990;-53
2023/08/02 22:50:07;;;;;;;;;17.25;16.25;;;;;;;;6488594;39;8993;-54
2023/08/02 22:56:12;;;;;;;;;21.50;19.50;;;;;;;;6489567;39;9679;-51
2023/08/02 23:02:15;;;;;;;;;18.25;18.25;;;;;;;;6487999;39;8863;-55
2023/08/02 23:08:18;;;;;;;;;21.50;20.25;;;;;;;;6488490;39;8866;-55
2023/08/02 23:14:21;;;;;;;;;15.00;15.00;;;;;;;;6489028;39;9421;-55
2023/08/02 23:20:39;;;;;;;;;19.00;18.50;;;;;;;;6486614;47;8870;-55
2023/08/02 23:26:41;;;;;;;;;18.75;18.75;;;;;;;;6488751;39;9069;-53
2023/08/02 23:32:44;;;;;;;;;24.00;22.75;;;;;;;;6489306;39;8858;-54
2023/08/02 23:38:46;;;;;;;;;17.75;17.25;;;;;;;;6490482;39;8957;-54
2023/08/02 23:44:48;;;;;;;;;21.25;19.75;;;;;;;;6489693;39;8906;-55
2023/08/02 23:50:51;;;;;;;;;20.50;19.50;;;;;;;;6490013;31;8846;-54
2023/08/02 23:56:53;;;;;;;;;18.00;18.00;;;;;;;;6490261;39;9708;-54
